createdAt,value
2022-08-17T00:02:25.847Z,2.03
2022-08-17T00:04:55.663Z,2.03
2022-08-17T00:07:23.669Z,2.20
2022-08-17T00:09:50.871Z,1.60
2022-08-17T00:12:51.162Z,2.30
2022-08-17T00:15:12.336Z,1.42
2022-08-17T00:17:42.468Z,2.47
2022-08-17T00:20:12.396Z,1.70
2022-08-17T00:22:39.996Z,1.98
2022-08-17T00:25:12.660Z,2.13
2022-08-17T00:27:40.805Z,1.80
2022-08-17T00:30:11.043Z,1.23
2022-08-17T00:33:14.543Z,1.83
2022-08-17T00:35:39.576Z,1.77
2022-08-17T00:38:10.337Z,2.22
2022-08-17T00:41:03.801Z,2.35
2022-08-17T00:43:44.539Z,1.42
2022-08-17T00:46:26.776Z,2.22
2022-08-17T00:48:54.343Z,2.35
2022-08-17T00:51:55.279Z,2.08
2022-08-17T00:54:41.927Z,2.10
2022-08-17T00:57:15.576Z,1.90
2022-08-17T01:00:02.330Z,1.75
2022-08-17T01:02:41.556Z,2.13
2022-08-17T01:05:18.475Z,1.40
2022-08-17T01:07:48.186Z,2.35
2022-08-17T01:10:59.083Z,1.90
2022-08-17T01:13:06.124Z,2.90
2022-08-17T01:18:05.979Z,1.98
2022-08-17T01:20:47.843Z,2.30
2022-08-17T01:23:20.516Z,1.63
2022-08-17T01:25:55.617Z,2.08
2022-08-17T01:28:52.389Z,2.28
2022-08-17T01:31:13.339Z,2.08
2022-08-17T01:33:40.974Z,1.85
2022-08-17T01:36:09.159Z,2.25
2022-08-17T01:38:38.357Z,2.17
2022-08-17T01:41:16.704Z,1.70
2022-08-17T01:44:00.121Z,1.90
2022-08-17T01:46:34.781Z,2.13
2022-08-17T01:49:05.838Z,2.08
2022-08-17T01:51:34.059Z,1.83
2022-08-17T01:54:05.783Z,1.77
2022-08-17T01:56:35.420Z,2.30
2022-08-17T01:59:04.092Z,2.25
2022-08-17T02:01:34.019Z,2.03
2022-08-17T02:04:02.681Z,1.42
2022-08-17T02:06:45.199Z,1.55
2022-08-17T02:09:25.369Z,1.92
2022-08-17T02:11:57.879Z,2.00
2022-08-17T02:14:26.116Z,2.00
2022-08-17T02:16:54.387Z,1.88
2022-08-17T02:19:23.152Z,2.17
2022-08-17T02:21:53.309Z,1.88
2022-08-17T02:24:58.778Z,1.58
2022-08-17T02:27:15.584Z,1.85
2022-08-17T02:29:42.758Z,1.83
2022-08-17T02:32:27.693Z,1.98
2022-08-17T02:34:59.440Z,1.90
2022-08-17T02:37:28.576Z,1.92
2022-08-17T02:40:01.132Z,1.73
2022-08-17T02:42:40.855Z,1.63
2022-08-17T02:45:14.132Z,1.50
2022-08-17T02:47:42.436Z,1.42
2022-08-17T02:50:13.288Z,1.65
2022-08-17T02:52:43.601Z,2.13
2022-08-17T02:55:34.610Z,1.80
2022-08-17T02:58:04.435Z,1.30
2022-08-17T03:00:36.044Z,1.63
2022-08-17T03:03:06.133Z,1.58
2022-08-17T03:05:39.921Z,1.50
2022-08-17T03:08:12.966Z,1.80
2022-08-17T03:10:41.121Z,2.05
2022-08-17T03:15:35.640Z,1.83
2022-08-17T03:18:04.502Z,1.55
2022-08-17T03:20:33.902Z,1.73
2022-08-17T03:23:02.028Z,2.25
2022-08-17T03:25:38.107Z,2.35
2022-08-17T03:28:07.195Z,2.08
2022-08-17T03:30:35.388Z,1.52
2022-08-17T03:35:55.353Z,2.00
2022-08-17T03:38:23.289Z,1.52
2022-08-17T03:40:59.066Z,1.98
2022-08-17T03:43:33.184Z,2.42
2022-08-17T03:46:28.402Z,2.30
2022-08-17T03:49:44.208Z,1.92
2022-08-17T03:52:33.023Z,1.77
2022-08-17T03:55:20.066Z,2.15
2022-08-17T03:58:03.148Z,2.05
2022-08-17T04:00:31.026Z,2.30
2022-08-17T04:02:59.537Z,2.28
2022-08-17T04:05:27.064Z,2.03
2022-08-17T04:07:54.309Z,2.22
2022-08-17T04:10:33.885Z,2.47
2022-08-17T04:13:06.014Z,1.90
2022-08-17T04:15:33.984Z,2.45
2022-08-17T04:18:01.202Z,2.03
2022-08-17T04:20:28.669Z,1.98
2022-08-17T04:22:59.823Z,2.58
2022-08-17T04:25:27.686Z,2.13
2022-08-17T04:27:56.010Z,2.10
2022-08-17T04:30:23.571Z,2.72
2022-08-17T04:33:05.222Z,2.00
2022-08-17T04:35:40.626Z,2.22
2022-08-17T04:38:09.699Z,2.75
2022-08-17T04:40:55.618Z,1.98
2022-08-17T04:43:24.658Z,2.28
2022-08-17T04:45:57.158Z,1.50
2022-08-17T04:48:35.571Z,1.50
2022-08-17T04:51:17.670Z,2.58
2022-08-17T04:53:55.231Z,2.28
2022-08-17T04:58:52.580Z,2.85
2022-08-17T05:01:25.960Z,2.40
2022-08-17T05:03:56.469Z,2.20
2022-08-17T05:06:24.720Z,2.35
2022-08-17T05:08:52.263Z,1.92
2022-08-17T05:11:19.870Z,2.00
2022-08-17T05:13:50.467Z,1.77
2022-08-17T05:16:19.110Z,1.85
2022-08-17T05:18:47.309Z,1.88
2022-08-17T05:21:17.721Z,2.10
2022-08-17T05:23:46.221Z,1.70
2022-08-17T05:26:40.430Z,2.25
2022-08-17T05:29:09.731Z,2.05
2022-08-17T05:31:39.345Z,1.88
2022-08-17T05:34:07.486Z,1.80
2022-08-17T05:36:37.966Z,2.08
2022-08-17T05:39:16.114Z,2.33
2022-08-17T05:41:46.287Z,1.70
2022-08-17T05:44:13.653Z,2.00
2022-08-17T05:46:44.477Z,2.22
2022-08-17T05:49:15.074Z,2.58
2022-08-17T05:52:02.485Z,2.38
2022-08-17T05:54:42.576Z,1.80
2022-08-17T05:57:39.578Z,1.77
2022-08-17T06:00:30.633Z,1.77
2022-08-17T06:03:27.369Z,2.05
2022-08-17T06:06:17.494Z,2.10
2022-08-17T06:09:00.845Z,1.80
2022-08-17T06:11:53.439Z,3.22
2022-08-17T06:15:14.300Z,1.70
2022-08-17T06:17:43.351Z,1.90
2022-08-17T06:20:16.375Z,1.60
2022-08-17T06:22:51.882Z,2.30
2022-08-17T06:25:39.511Z,1.38
2022-08-17T06:28:13.834Z,1.73
2022-08-17T06:30:59.272Z,1.85
2022-08-17T06:33:37.987Z,1.45
2022-08-17T06:36:35.627Z,1.85
2022-08-17T06:39:27.714Z,1.95
2022-08-17T06:42:01.720Z,1.50
2022-08-17T06:45:03.759Z,1.63
2022-08-17T06:48:00.167Z,2.08
2022-08-17T06:50:36.448Z,1.40
2022-08-17T06:53:29.818Z,1.75
2022-08-17T06:56:10.675Z,1.48
2022-08-17T06:58:41.996Z,1.58
2022-08-17T07:01:18.254Z,1.30
2022-08-17T07:03:59.208Z,1.58
2022-08-17T07:09:29.013Z,1.55
2022-08-17T07:12:00.322Z,1.50
2022-08-17T07:14:39.889Z,2.03
2022-08-17T07:17:10.998Z,2.83
2022-08-17T07:19:41.333Z,2.78
2022-08-17T07:22:57.538Z,2.50
2022-08-17T07:25:23.583Z,4.65
2022-08-17T07:27:54.073Z,3.72
2022-08-17T07:30:47.355Z,2.55
2022-08-17T07:33:20.445Z,1.80
2022-08-17T07:35:50.341Z,1.92
2022-08-17T07:38:25.259Z,2.03
2022-08-17T07:41:14.010Z,2.00
2022-08-17T07:43:41.163Z,2.17
2022-08-17T07:49:13.536Z,1.63
2022-08-17T07:51:43.992Z,1.65
2022-08-17T07:54:21.708Z,1.88
2022-08-17T07:56:55.017Z,1.55
2022-08-17T07:59:27.199Z,1.90
2022-08-17T08:02:10.250Z,2.10
2022-08-17T08:05:08.898Z,1.40
2022-08-17T08:07:48.041Z,2.10
2022-08-17T08:10:33.739Z,1.33
2022-08-17T08:13:15.040Z,1.30
2022-08-17T08:15:53.942Z,1.20
2022-08-17T08:18:41.197Z,1.20
2022-08-17T08:21:49.148Z,1.20
2022-08-17T08:24:31.398Z,1.45
2022-08-17T08:27:27.396Z,1.83
2022-08-17T08:30:05.014Z,1.60
2022-08-17T08:32:57.278Z,1.70
2022-08-17T08:35:32.712Z,1.27
2022-08-17T08:38:08.626Z,1.15
2022-08-17T08:41:07.090Z,2.33
2022-08-17T08:44:13.894Z,1.52
2022-08-17T08:46:49.762Z,1.50
2022-08-17T08:50:03.444Z,1.60
2022-08-17T08:52:43.279Z,1.52
2022-08-17T08:55:44.873Z,1.73
2022-08-17T08:58:32.121Z,1.60
2022-08-17T09:04:26.765Z,1.95
2022-08-17T09:07:15.601Z,1.40
2022-08-17T09:10:03.464Z,1.42
2022-08-17T09:16:03.492Z,1.55
2022-08-17T09:19:00.309Z,1.40
2022-08-17T09:21:56.749Z,1.40
2022-08-17T09:24:40.221Z,1.77
2022-08-17T09:27:22.380Z,1.35
2022-08-17T09:29:58.020Z,1.23
2022-08-17T09:32:55.525Z,1.55
2022-08-17T09:35:32.758Z,1.13
2022-08-17T09:38:19.626Z,1.42
2022-08-17T09:41:13.555Z,1.50
2022-08-17T09:44:01.906Z,1.80
2022-08-17T09:46:43.786Z,1.55
2022-08-17T09:49:42.770Z,1.40
2022-08-17T09:52:24.153Z,1.30
2022-08-17T09:54:53.689Z,1.40
2022-08-17T09:57:30.289Z,1.27
2022-08-17T10:00:16.955Z,1.40
2022-08-17T10:02:59.242Z,1.60
2022-08-17T10:05:48.104Z,0.93
2022-08-17T10:08:53.165Z,1.50
2022-08-17T10:11:55.241Z,1.50
2022-08-17T10:15:14.765Z,1.60
2022-08-17T10:17:47.781Z,1.30
2022-08-17T10:20:29.909Z,1.48
2022-08-17T10:23:31.976Z,1.70
2022-08-17T10:26:27.427Z,1.10
2022-08-17T10:29:10.640Z,1.90
2022-08-17T10:31:50.725Z,1.50
2022-08-17T10:34:40.983Z,1.83
2022-08-17T10:37:41.560Z,1.60
2022-08-17T10:40:26.542Z,1.70
2022-08-17T10:43:12.111Z,1.80
2022-08-17T10:46:31.699Z,1.70
2022-08-17T10:49:29.775Z,1.52
2022-08-17T10:52:04.227Z,1.42
2022-08-17T10:54:49.494Z,1.45
2022-08-17T10:57:32.209Z,1.52
2022-08-17T11:00:17.368Z,1.50
2022-08-17T11:02:49.725Z,1.73
2022-08-17T11:05:41.525Z,1.20
2022-08-17T11:08:19.855Z,1.58
2022-08-17T11:11:21.163Z,1.70
2022-08-17T11:14:04.924Z,1.45
2022-08-17T11:16:50.621Z,1.77
2022-08-17T11:20:08.025Z,1.33
2022-08-17T11:22:55.922Z,1.50
2022-08-17T11:25:36.545Z,1.10
2022-08-17T11:28:28.318Z,1.60
2022-08-17T11:30:59.617Z,1.30
2022-08-17T11:33:30.538Z,1.42
2022-08-17T11:36:25.534Z,1.58
2022-08-17T11:39:36.137Z,1.48
2022-08-17T11:42:21.386Z,1.13
2022-08-17T11:45:32.078Z,1.48
2022-08-17T11:48:46.070Z,1.30
2022-08-17T11:51:33.773Z,1.45
2022-08-17T11:56:53.296Z,1.48
2022-08-17T11:59:50.262Z,1.17
2022-08-17T12:02:29.891Z,1.33
2022-08-17T12:05:16.146Z,1.70
2022-08-17T12:08:05.008Z,2.58
2022-08-17T12:10:36.105Z,1.20
2022-08-17T12:13:16.244Z,1.50
2022-08-17T12:15:50.800Z,1.40
2022-08-17T12:18:28.389Z,1.30
2022-08-17T12:21:49.031Z,1.25
2022-08-17T12:24:18.861Z,1.67
2022-08-17T12:26:57.440Z,1.30
2022-08-17T12:29:38.404Z,1.70
2022-08-17T12:32:13.215Z,1.30
2022-08-17T12:34:43.057Z,1.60
2022-08-17T12:37:22.311Z,1.23
2022-08-17T12:40:05.032Z,1.30
2022-08-17T12:42:37.625Z,1.50
2022-08-17T12:45:22.163Z,1.85
2022-08-17T12:47:49.582Z,1.58
2022-08-17T12:50:29.813Z,1.50
2022-08-17T12:53:01.632Z,1.50
2022-08-17T12:55:36.783Z,1.63
2022-08-17T12:58:04.653Z,1.42
2022-08-17T13:00:41.177Z,1.38
2022-08-17T13:03:19.514Z,1.38
2022-08-17T13:05:52.692Z,1.20
2022-08-17T13:08:25.337Z,1.40
2022-08-17T13:10:58.230Z,1.45
2022-08-17T13:13:36.961Z,1.70
2022-08-17T13:16:17.813Z,1.30
2022-08-17T13:18:49.867Z,1.40
2022-08-17T13:21:19.987Z,1.15
2022-08-17T13:24:19.565Z,0.90
2022-08-17T13:26:46.514Z,1.30
2022-08-17T13:32:03.844Z,1.50
2022-08-17T13:34:39.900Z,1.58
2022-08-17T13:37:30.811Z,2.00
2022-08-17T13:40:10.003Z,2.03
2022-08-17T13:42:51.486Z,2.28
2022-08-17T13:45:36.483Z,1.70
2022-08-17T13:48:16.199Z,1.30
2022-08-17T13:51:25.084Z,1.10
2022-08-17T13:53:57.448Z,1.30
2022-08-17T13:56:39.785Z,1.40
2022-08-17T13:59:15.294Z,1.40
2022-08-17T14:01:53.606Z,1.42
2022-08-17T14:04:28.545Z,1.48
2022-08-17T14:07:24.871Z,1.25
2022-08-17T14:12:29.674Z,1.10
2022-08-17T14:14:59.320Z,1.10
2022-08-17T14:17:29.199Z,1.95
2022-08-17T14:19:56.323Z,1.50
2022-08-17T14:22:32.326Z,1.00
2022-08-17T14:25:02.021Z,1.00
2022-08-17T14:27:32.147Z,1.17
2022-08-17T14:30:00.381Z,1.40
2022-08-17T14:32:31.893Z,1.17
2022-08-17T14:34:59.921Z,1.20
2022-08-17T14:37:28.819Z,1.23
2022-08-17T14:40:00.378Z,1.13
2022-08-17T14:42:32.854Z,1.88
2022-08-17T14:45:00.345Z,1.20
2022-08-17T14:47:27.381Z,1.20
2022-08-17T14:52:22.247Z,1.33
2022-08-17T14:54:51.736Z,1.73
2022-08-17T14:57:23.728Z,1.70
2022-08-17T15:00:02.262Z,1.48
2022-08-17T15:02:31.111Z,0.90
2022-08-17T15:05:06.177Z,0.73
2022-08-17T15:07:33.622Z,1.17
2022-08-17T15:10:02.375Z,0.98
2022-08-17T15:12:34.570Z,1.00
2022-08-17T15:15:14.382Z,1.00
2022-08-17T15:17:46.751Z,1.17
2022-08-17T15:20:21.440Z,1.05
2022-08-17T15:22:56.460Z,1.17
2022-08-17T15:25:32.313Z,1.27
2022-08-17T15:28:00.640Z,1.00
2022-08-17T15:30:30.577Z,1.15
2022-08-17T15:32:59.323Z,1.00
2022-08-17T15:35:30.969Z,1.05
2022-08-17T15:38:11.187Z,1.10
2022-08-17T15:40:42.412Z,1.08
2022-08-17T15:43:17.267Z,1.00
2022-08-17T15:45:59.588Z,1.00
2022-08-17T15:48:45.173Z,1.35
2022-08-17T15:51:31.150Z,0.82
2022-08-17T15:54:19.188Z,0.95
2022-08-17T15:56:52.457Z,1.00
2022-08-17T15:59:24.921Z,1.35
2022-08-17T16:03:14.688Z,1.10
2022-08-17T16:04:40.349Z,1.33
2022-08-17T16:07:12.182Z,1.10
2022-08-17T16:09:39.477Z,1.13
2022-08-17T16:12:16.343Z,0.85
2022-08-17T16:17:15.591Z,1.25
2022-08-17T16:20:05.346Z,1.15
2022-08-17T16:22:35.789Z,1.15
2022-08-17T16:25:08.078Z,1.10
2022-08-17T16:27:35.442Z,1.10
2022-08-17T16:30:03.590Z,1.20
2022-08-17T16:32:32.875Z,1.10
2022-08-17T16:35:11.594Z,1.42
2022-08-17T16:37:44.583Z,1.27
2022-08-17T16:40:14.815Z,1.77
2022-08-17T16:42:45.929Z,1.05
2022-08-17T16:45:25.336Z,1.00
2022-08-17T16:47:53.805Z,1.10
2022-08-17T16:50:25.712Z,1.10
2022-08-17T16:52:53.163Z,1.00
2022-08-17T16:55:22.478Z,0.60
2022-08-17T16:57:50.553Z,0.88
2022-08-17T17:03:21.976Z,1.15
2022-08-17T17:09:03.983Z,1.30
2022-08-17T17:11:44.493Z,0.98
2022-08-17T17:14:50.624Z,0.98
2022-08-17T17:17:46.775Z,1.63
2022-08-17T17:20:29.655Z,1.35
2022-08-17T17:23:18.823Z,1.70
2022-08-17T17:26:01.078Z,1.20
2022-08-17T17:28:44.102Z,1.10
2022-08-17T17:31:21.718Z,1.20
2022-08-17T17:34:04.250Z,1.23
2022-08-17T17:36:46.584Z,1.23
2022-08-17T17:39:46.850Z,1.10
2022-08-17T17:46:25.435Z,0.98
2022-08-17T17:48:50.870Z,0.80
2022-08-17T17:52:08.500Z,0.90
2022-08-17T17:55:03.458Z,1.20
2022-08-17T17:57:59.720Z,1.45
2022-08-17T18:00:41.652Z,1.20
2022-08-17T18:03:28.513Z,0.90
2022-08-17T18:06:06.992Z,0.98
2022-08-17T18:09:22.917Z,0.80
2022-08-17T18:12:15.483Z,1.30
2022-08-17T18:15:12.693Z,1.30
2022-08-17T18:17:58.916Z,1.10
2022-08-17T18:20:32.490Z,1.85
2022-08-17T18:23:10.993Z,1.05
2022-08-17T18:28:32.825Z,1.00
2022-08-17T18:31:24.126Z,1.45
2022-08-17T18:35:08.707Z,1.42
2022-08-17T18:37:39.731Z,1.33
2022-08-17T18:40:33.556Z,1.20
2022-08-17T18:43:07.038Z,1.08
2022-08-17T18:46:28.828Z,1.20
2022-08-17T18:49:08.032Z,1.42
2022-08-17T18:51:42.898Z,1.30
2022-08-17T18:54:16.118Z,1.30
2022-08-17T18:57:02.584Z,1.20
2022-08-17T18:59:40.524Z,1.00
2022-08-17T19:02:38.709Z,1.23
2022-08-17T19:05:25.877Z,1.77
2022-08-17T19:07:56.304Z,1.33
2022-08-17T19:10:45.992Z,1.25
2022-08-17T19:13:29.614Z,1.23
2022-08-17T19:16:15.834Z,1.10
2022-08-17T19:19:08.849Z,0.93
2022-08-17T19:22:01.245Z,1.45
2022-08-17T19:24:33.284Z,1.30
2022-08-17T19:27:24.031Z,1.27
2022-08-17T19:29:58.300Z,1.13
2022-08-17T19:32:29.664Z,1.40
2022-08-17T19:34:58.778Z,1.20
2022-08-17T19:38:01.268Z,1.42
2022-08-17T19:41:06.499Z,1.35
2022-08-17T19:43:42.590Z,1.15
2022-08-17T19:46:20.702Z,1.15
2022-08-17T19:49:11.528Z,1.27
2022-08-17T19:52:05.376Z,1.63
2022-08-17T19:54:48.087Z,1.38
2022-08-17T19:57:53.403Z,1.33
2022-08-17T20:00:20.788Z,1.40
2022-08-17T20:03:33.409Z,1.08
2022-08-17T20:09:14.979Z,1.60
2022-08-17T20:12:00.717Z,1.40
2022-08-17T20:14:53.606Z,1.20
2022-08-17T20:20:28.197Z,1.33
2022-08-17T20:23:31.080Z,1.48
2022-08-17T20:26:22.108Z,1.83
2022-08-17T20:29:19.119Z,1.15
2022-08-17T20:32:07.928Z,1.33
2022-08-17T20:34:47.697Z,1.48
2022-08-17T20:37:17.996Z,1.08
2022-08-17T20:40:14.217Z,1.50
2022-08-17T20:42:48.576Z,1.50
2022-08-17T20:45:53.606Z,1.08
2022-08-17T20:48:38.628Z,1.45
2022-08-17T20:51:30.698Z,1.50
2022-08-17T20:57:34.521Z,1.63
2022-08-17T21:00:28.733Z,1.58
2022-08-17T21:03:23.531Z,2.00
2022-08-17T21:06:01.066Z,1.65
2022-08-17T21:08:58.726Z,1.40
2022-08-17T21:12:02.273Z,1.60
2022-08-17T21:14:40.706Z,1.45
2022-08-17T21:17:37.269Z,1.58
2022-08-17T21:20:32.325Z,2.00
2022-08-17T21:23:14.579Z,1.70
2022-08-17T21:26:30.214Z,1.58
2022-08-17T21:29:31.967Z,1.38
2022-08-17T21:32:00.761Z,1.77
2022-08-17T21:34:48.526Z,1.70
2022-08-17T21:37:34.689Z,1.75
2022-08-17T21:40:24.895Z,1.85
2022-08-17T21:42:56.567Z,1.90
2022-08-17T21:45:31.425Z,2.28
2022-08-17T21:48:23.839Z,1.58
2022-08-17T21:51:14.225Z,1.90
2022-08-17T21:53:53.009Z,1.50
2022-08-17T21:56:36.770Z,1.65
2022-08-17T21:59:22.316Z,1.60
2022-08-17T22:01:58.172Z,1.30
2022-08-17T22:05:11.503Z,1.75
2022-08-17T22:07:51.862Z,1.60
2022-08-17T22:10:35.173Z,2.00
2022-08-17T22:13:19.799Z,1.80
2022-08-17T22:16:29.084Z,1.90
2022-08-17T22:21:33.677Z,1.48
2022-08-17T22:24:43.003Z,2.28
2022-08-17T22:27:16.051Z,1.52
2022-08-17T22:30:07.172Z,1.80
2022-08-17T22:32:45.028Z,2.00
2022-08-17T22:35:38.338Z,1.95
2022-08-17T22:38:35.638Z,1.98
2022-08-17T22:41:42.293Z,1.75
2022-08-17T22:44:27.926Z,1.80
2022-08-17T22:47:00.620Z,1.67
2022-08-17T22:49:53.865Z,1.73
2022-08-17T22:53:02.039Z,1.30
2022-08-17T22:55:52.696Z,1.48
2022-08-17T22:58:58.561Z,1.75
2022-08-17T23:01:36.345Z,1.88
2022-08-17T23:04:31.302Z,1.80
2022-08-17T23:06:58.804Z,1.23
2022-08-17T23:09:26.492Z,1.95
2022-08-17T23:14:31.887Z,1.40
2022-08-17T23:17:07.169Z,1.50
2022-08-17T23:19:35.933Z,1.70
2022-08-17T23:22:07.137Z,1.45
2022-08-17T23:24:50.271Z,1.77
2022-08-17T23:30:11.755Z,1.75
2022-08-17T23:32:53.623Z,1.45
2022-08-17T23:35:40.223Z,1.70
2022-08-17T23:38:17.056Z,1.45
2022-08-17T23:40:45.037Z,1.55
2022-08-17T23:43:25.320Z,1.60
2022-08-17T23:45:59.504Z,1.45
2022-08-17T23:48:37.428Z,1.77
2022-08-17T23:51:09.592Z,1.20
2022-08-17T23:53:44.011Z,1.25
2022-08-17T23:56:12.076Z,1.70
2022-08-17T23:58:42.605Z,1.10
